Time;durP1;ratioP1;P1;durP2;ratioP2;P2;SDS_P1;SDS_P2;PMS_P1;PMS_P2;Temp;Humidity;BMP_temperature;BMP_pressure;BME280_temperature;BME280_humidity;BME280_pressure;Samples;Min_cycle;Max_cycle;Signal;HPM_P1;HPM_P2
2021/11/25 00:02:02;;;;;;;18.38;6.55;;;;;;;5.40;77.67;100171.94;4968750;28;20055;-47
2021/11/25 00:04:29;;;;;;;14.45;4.82;;;;;;;5.37;78.15;100171.03;4969357;28;20078;-47
2021/11/25 00:06:55;;;;;;;12.45;5.15;;;;;;;5.36;77.32;100179.53;4969482;28;20046;-48
2021/11/25 00:09:22;;;;;;;12.65;4.65;;;;;;;5.30;77.43;100175.13;4969561;28;20079;-51
2021/11/25 00:11:48;;;;;;;14.65;4.55;;;;;;;5.32;76.97;100178.63;4967569;28;20125;-52
2021/11/25 00:14:15;;;;;;;10.07;4.10;;;;;;;5.32;77.48;100176.06;4971583;28;20097;-50
2021/11/25 00:16:42;;;;;;;6.90;3.00;;;;;;;5.31;76.70;100174.31;4969622;28;20105;-49
2021/11/25 00:19:09;;;;;;;8.25;2.72;;;;;;;5.31;76.05;100166.63;4967422;28;20058;-47
2021/11/25 00:21:36;;;;;;;9.30;3.85;;;;;;;5.32;76.47;100167.47;4969292;28;20050;-49
2021/11/25 00:24:05;;;;;;;8.82;3.17;;;;;;;5.32;75.56;100162.31;4969111;28;20042;-46
2021/11/25 00:26:33;;;;;;;9.65;3.50;;;;;;;5.32;75.99;100163.22;4970757;28;20050;-46
2021/11/25 00:29:00;;;;;;;7.95;3.33;;;;;;;5.33;76.25;100158.94;4969764;28;20072;-47
2021/11/25 00:31:26;;;;;;;6.82;2.50;;;;;;;5.34;76.04;100161.53;4969004;28;20109;-50
2021/11/25 00:33:53;;;;;;;6.55;2.22;;;;;;;5.34;75.81;100161.53;4966630;28;20055;-50
2021/11/25 00:36:20;;;;;;;5.80;2.50;;;;;;;5.33;74.84;100154.66;4980407;28;20055;-48
2021/11/25 00:38:47;;;;;;;7.53;2.33;;;;;;;5.36;74.54;100157.28;4970667;28;20058;-47
2021/11/25 00:41:14;;;;;;;6.63;2.63;;;;;;;5.34;75.10;100152.97;4971034;28;20569;-46
2021/11/25 00:43:42;;;;;;;6.95;1.38;;;;;;;5.31;74.15;100155.47;4969563;28;20801;-50
2021/11/25 00:46:09;;;;;;;8.35;2.50;;;;;;;5.32;73.60;100152.94;4969735;28;20073;-47
2021/11/25 00:48:37;;;;;;;3.97;1.45;;;;;;;5.25;73.37;100154.50;4968502;28;20054;-52
2021/11/25 00:51:04;;;;;;;7.20;2.78;;;;;;;5.29;74.62;100158.00;4970044;28;20125;-53
2021/11/25 00:53:31;;;;;;;6.40;2.40;;;;;;;5.29;74.51;100163.13;4971826;28;20042;-48
2021/11/25 00:55:57;;;;;;;6.45;2.17;;;;;;;5.27;74.29;100159.69;4971388;28;20046;-45
2021/11/25 00:58:24;;;;;;;9.10;2.47;;;;;;;5.28;73.99;100163.97;4970973;28;20054;-50
2021/11/25 01:00:50;;;;;;;6.32;2.47;;;;;;;5.24;73.99;100159.63;4967309;28;20073;-49
2021/11/25 01:03:18;;;;;;;8.55;2.72;;;;;;;5.25;73.80;100158.78;4962057;28;20050;-48
2021/11/25 01:05:46;;;;;;;7.43;2.72;;;;;;;5.22;72.98;100158.72;4983431;28;20055;-46
2021/11/25 01:08:14;;;;;;;4.90;2.17;;;;;;;5.24;73.13;100159.63;4967586;28;20050;-49
2021/11/25 01:10:41;;;;;;;6.25;2.30;;;;;;;5.22;73.16;100166.41;4971072;28;20078;-48
2021/11/25 01:13:08;;;;;;;4.85;1.45;;;;;;;5.17;72.32;100168.03;4966607;28;20718;-50
2021/11/25 01:15:36;;;;;;;7.80;2.22;;;;;;;5.20;73.49;100166.38;4969726;28;20047;-49
2021/11/25 01:18:08;;;;;;;7.10;2.17;;;;;;;5.19;73.10;100166.34;4967021;28;20059;-48
2021/11/25 01:20:36;;;;;;;7.80;2.28;;;;;;;5.20;73.01;100168.09;4968029;28;20046;-46
2021/11/25 01:23:06;;;;;;;8.15;2.33;;;;;;;5.18;72.71;100182.59;4968600;28;20050;-50
2021/11/25 01:25:33;;;;;;;6.80;2.45;;;;;;;5.17;72.15;100180.88;4969065;28;20054;-50
2021/11/25 01:28:00;;;;;;;7.97;1.95;;;;;;;5.19;72.40;100176.59;4968479;28;20110;-49
2021/11/25 01:30:27;;;;;;;6.78;2.17;;;;;;;5.14;72.03;100185.09;4966990;28;20110;-49
2021/11/25 01:32:54;;;;;;;3.67;0.98;;;;;;;5.08;71.23;100184.97;4965882;28;20597;-47
2021/11/25 01:35:20;;;;;;;5.22;1.88;;;;;;;5.13;72.09;100178.22;4968346;28;20948;-50
2021/11/25 01:37:50;;;;;;;7.28;2.33;;;;;;;5.12;72.13;100176.50;4969102;28;20046;-46
2021/11/25 01:40:17;;;;;;;10.15;1.73;;;;;;;5.09;71.50;100176.44;4969232;28;20058;-48
2021/11/25 01:42:44;;;;;;;5.03;1.92;;;;;;;5.06;71.70;100173.78;4968980;28;20438;-48
2021/11/25 01:45:13;;;;;;;5.50;1.67;;;;;;;5.02;70.89;100182.25;4969291;28;20062;-49
2021/11/25 01:47:46;;;;;;;10.27;1.50;;;;;;;5.04;71.82;100182.28;4967819;28;20062;-50
2021/11/25 01:50:15;;;;;;;4.00;1.40;;;;;;;4.98;71.11;100183.91;4981206;28;20051;-52
2021/11/25 01:52:41;;;;;;;3.10;1.00;;;;;;;4.95;70.84;100185.50;4969995;28;20129;-49
2021/11/25 01:55:09;;;;;;;3.70;1.10;;;;;;;4.92;70.32;100177.72;4970011;28;20109;-50
2021/11/25 01:57:36;;;;;;;4.85;1.17;;;;;;;4.86;70.46;100179.34;4967036;28;20055;-49
2021/11/25 02:00:09;;;;;;;3.28;0.65;;;;;;;4.81;69.41;100178.38;4965494;28;20505;-47
2021/11/25 02:02:36;;;;;;;4.90;0.93;;;;;;;4.76;69.17;100172.25;4968069;28;20667;-50
2021/11/25 02:05:03;;;;;;;3.42;0.73;;;;;;;4.79;69.67;100177.47;4969479;28;20043;-46
2021/11/25 02:07:30;;;;;;;3.30;0.85;;;;;;;4.72;68.49;100196.09;4969510;28;20130;-46
2021/11/25 02:09:56;;;;;;;3.92;0.60;;;;;;;4.73;68.65;100183.31;4968083;28;20089;-45
2021/11/25 02:12:23;;;;;;;2.45;0.60;;;;;;;4.70;69.10;100185.81;4966681;28;20443;-48
2021/11/25 02:14:50;;;;;;;4.38;1.08;;;;;;;4.69;68.40;100190.94;4970102;28;20116;-48
2021/11/25 02:17:17;;;;;;;2.45;1.08;;;;;;;4.63;68.20;100186.53;4967729;28;20083;-46
2021/11/25 02:19:44;;;;;;;4.50;1.27;;;;;;;4.60;68.16;100187.28;4969122;28;20651;-47
2021/11/25 02:22:11;;;;;;;4.85;0.65;;;;;;;4.55;67.49;100188.88;4965976;28;20439;-44
2021/11/25 02:24:38;;;;;;;2.80;0.63;;;;;;;4.51;67.38;100194.78;4968233;28;20149;-45
2021/11/25 02:27:05;;;;;;;1.95;0.85;;;;;;;4.45;67.37;100181.78;4968957;28;20094;-43
2021/11/25 02:29:32;;;;;;;1.58;0.63;;;;;;;4.41;67.14;100185.09;4965680;28;20051;-45
2021/11/25 02:31:58;;;;;;;2.08;0.40;;;;;;;4.33;67.14;100183.22;4969625;28;20051;-44
2021/11/25 02:34:25;;;;;;;1.15;0.55;;;;;;;4.25;66.48;100192.41;4965761;28;20054;-47
2021/11/25 02:36:53;;;;;;;1.70;0.45;;;;;;;4.17;66.84;100192.25;4978641;28;20050;-45
2021/11/25 02:39:20;;;;;;;1.48;0.57;;;;;;;4.09;66.80;100196.31;4968332;28;20050;-44
2021/11/25 02:41:47;;;;;;;2.20;0.40;;;;;;;4.01;66.58;100190.97;4968516;28;20058;-46
2021/11/25 02:44:14;;;;;;;4.25;0.68;;;;;;;3.95;67.03;100185.69;4967952;28;20051;-47
2021/11/25 02:46:40;;;;;;;2.25;0.52;;;;;;;3.87;66.81;100177.78;4967684;28;20438;-47
2021/11/25 02:49:07;;;;;;;1.58;0.73;;;;;;;3.80;66.74;100192.13;4965965;28;20051;-44
2021/11/25 02:51:35;;;;;;;4.90;0.88;;;;;;;3.76;66.67;100195.44;4966610;28;20053;-45
2021/11/25 02:54:02;;;;;;;1.95;0.30;;;;;;;3.72;67.73;100198.75;4966772;28;20433;-48
2021/11/25 02:56:29;;;;;;;6.18;0.50;;;;;;;3.67;67.37;100192.59;4962467;28;20062;-49
2021/11/25 02:58:58;;;;;;;4.18;0.50;;;;;;;3.62;67.43;100194.19;4965012;28;20062;-46
2021/11/25 03:01:29;;;;;;;1.48;0.40;;;;;;;3.55;67.17;100198.25;4978825;28;20058;-44
2021/11/25 03:03:59;;;;;;;0.47;0.38;;;;;;;3.49;67.57;100200.63;4964724;28;20565;-43
2021/11/25 03:06:26;;;;;;;0.55;0.30;;;;;;;3.48;67.69;100199.78;4969195;28;20055;-43
2021/11/25 03:08:54;;;;;;;4.85;0.80;;;;;;;3.43;66.96;100198.78;4966875;28;20438;-46
2021/11/25 03:11:23;;;;;;;3.25;0.75;;;;;;;3.34;67.22;100192.56;4968159;28;20730;-48
2021/11/25 03:13:53;;;;;;;2.45;0.43;;;;;;;3.31;67.79;100192.47;4966813;28;20050;-47
2021/11/25 03:16:22;;;;;;;2.25;0.45;;;;;;;3.27;67.53;100194.91;4969440;28;20051;-47
2021/11/25 03:18:50;;;;;;;7.03;0.82;;;;;;;3.26;67.91;100194.03;4969115;28;20050;-47
2021/11/25 03:21:18;;;;;;;4.20;0.65;;;;;;;3.21;67.11;100200.72;4978673;28;20518;-45
2021/11/25 03:23:47;;;;;;;1.92;0.50;;;;;;;3.13;67.90;100195.34;4969985;28;20583;-47
2021/11/25 03:26:17;;;;;;;1.17;0.50;;;;;;;3.11;68.40;100189.34;4965692;28;20051;-47
2021/11/25 03:28:45;;;;;;;3.00;0.90;;;;;;;3.06;67.19;100199.44;4967794;28;20046;-48
2021/11/25 03:31:14;;;;;;;0.50;0.40;;;;;;;2.99;67.51;100200.06;4966609;28;20097;-43
2021/11/25 03:33:41;;;;;;;1.25;0.68;;;;;;;2.99;67.93;100192.38;4975599;28;20577;-45
2021/11/25 03:36:09;;;;;;;7.28;0.70;;;;;;;3.01;67.85;100203.50;4980408;28;20121;-48
2021/11/25 03:38:36;;;;;;;2.03;0.40;;;;;;;2.95;67.55;100203.34;4965351;28;20055;-43
2021/11/25 03:41:04;;;;;;;3.72;0.40;;;;;;;2.88;68.66;100193.75;4968023;28;20047;-43
2021/11/25 03:43:31;;;;;;;0.55;0.35;;;;;;;2.82;67.88;100192.75;4975602;28;20050;-47
2021/11/25 03:45:58;;;;;;;1.15;0.32;;;;;;;2.85;68.74;100180.84;4967655;28;20046;-46
2021/11/25 03:48:28;;;;;;;4.25;0.80;;;;;;;2.80;67.63;100183.25;4965518;28;20442;-45
2021/11/25 03:50:57;;;;;;;4.38;0.70;;;;;;;2.76;69.09;100182.31;4970099;28;20050;-47
2021/11/25 03:53:24;;;;;;;3.33;0.50;;;;;;;2.74;68.39;100189.06;4964684;28;20549;-48
2021/11/25 03:55:51;;;;;;;1.77;0.60;;;;;;;2.73;68.11;100179.63;4964363;28;20546;-45
2021/11/25 03:58:18;;;;;;;2.75;0.55;;;;;;;2.69;68.28;100190.59;4966987;28;20498;-46
2021/11/25 04:00:46;;;;;;;3.60;0.63;;;;;;;2.63;69.03;100185.31;4965117;28;20043;-51
2021/11/25 04:03:13;;;;;;;5.15;0.32;;;;;;;2.57;68.47;100191.94;4966995;28;20109;-49
2021/11/25 04:05:40;;;;;;;1.20;0.50;;;;;;;2.48;67.93;100190.78;4964229;28;20058;-49
2021/11/25 04:08:07;;;;;;;1.70;0.77;;;;;;;2.46;68.09;100193.28;4963458;28;20704;-45
2021/11/25 04:10:35;;;;;;;4.07;0.63;;;;;;;2.44;68.21;100195.78;4966778;28;20046;-47
2021/11/25 04:13:03;;;;;;;3.80;0.63;;;;;;;2.45;68.43;100201.78;4967401;28;20043;-49
2021/11/25 04:15:30;;;;;;;1.35;0.50;;;;;;;2.40;68.25;100199.06;4970969;28;20047;-44
2021/11/25 04:17:56;;;;;;;6.53;0.40;;;;;;;2.42;69.75;100194.00;4968877;28;20450;-47
2021/11/25 04:20:23;;;;;;;5.40;0.60;;;;;;;2.41;69.12;100199.94;4970732;28;20090;-48
2021/11/25 04:22:50;;;;;;;3.08;0.40;;;;;;;2.38;68.86;100199.84;4964464;28;20094;-45
2021/11/25 04:25:17;;;;;;;6.25;0.63;;;;;;;2.35;69.06;100204.84;4969366;28;20198;-49
2021/11/25 04:27:45;;;;;;;2.33;0.50;;;;;;;2.34;68.89;100195.44;4967799;28;20046;-48
2021/11/25 04:30:26;;;;;;;3.22;0.50;;;;;;;2.31;69.53;100202.22;4970736;28;20085;-46
2021/11/25 04:35:39;;;;;;;4.22;0.60;;;;;;;2.18;69.51;100207.69;4968702;28;20133;-46
2021/11/25 04:38:09;;;;;;;1.77;0.40;;;;;;;2.14;70.14;100218.63;4965252;28;20065;-48
2021/11/25 04:40:37;;;;;;;;;;;;;;;2.03;68.69;100219.13;4964195;28;20065;-47
2021/11/25 04:43:06;;;;;;;3.17;0.73;;;;;;;2.03;68.87;100223.38;4969676;28;19926;-49
2021/11/25 04:45:35;;;;;;;2.50;0.75;;;;;;;1.97;69.48;100231.72;4967589;28;20109;-46
2021/11/25 04:48:02;;;;;;;3.22;0.85;;;;;;;1.93;69.55;100229.88;4971375;28;20490;-46
2021/11/25 04:50:29;;;;;;;5.55;0.95;;;;;;;1.90;70.14;100242.50;4969653;28;20403;-46
2021/11/25 04:52:55;;;;;;;4.32;1.25;;;;;;;1.90;69.30;100242.50;4966960;28;20046;-44
2021/11/25 04:55:23;;;;;;;4.30;0.95;;;;;;;1.85;70.14;100236.34;4970861;28;20066;-43
2021/11/25 04:57:50;;;;;;;5.05;1.40;;;;;;;1.79;71.17;100235.31;4968911;28;20043;-48
2021/11/25 05:00:19;;;;;;;2.72;1.30;;;;;;;1.77;70.36;100243.75;4971388;28;20109;-47
2021/11/25 05:02:46;;;;;;;4.63;1.65;;;;;;;1.74;70.35;100244.53;4968171;28;20050;-49
2021/11/25 05:05:13;;;;;;;6.13;1.23;;;;;;;1.71;71.14;100240.97;4968970;28;20509;-45
2021/11/25 05:07:40;;;;;;;7.00;1.20;;;;;;;1.64;71.17;100237.31;4963452;28;20125;-49
2021/11/25 05:10:08;;;;;;;4.70;0.80;;;;;;;1.63;70.41;100233.91;4967930;28;20101;-45
2021/11/25 05:12:37;;;;;;;2.13;0.90;;;;;;;1.54;70.55;100233.56;4968219;28;20053;-51
2021/11/25 05:15:07;;;;;;;6.63;1.02;;;;;;;1.50;72.12;100227.50;4969524;28;20411;-45
2021/11/25 05:17:33;;;;;;;3.83;1.15;;;;;;;1.46;70.89;100223.09;4968384;28;20051;-47
2021/11/25 05:20:01;;;;;;;3.08;0.98;;;;;;;1.41;70.98;100229.69;4968510;28;20485;-43
2021/11/25 05:22:27;;;;;;;2.38;0.68;;;;;;;1.39;71.94;100221.09;4969257;28;20058;-46
2021/11/25 05:24:54;;;;;;;3.85;0.75;;;;;;;1.38;71.35;100221.91;4966138;28;20055;-45
2021/11/25 05:27:20;;;;;;;2.28;0.70;;;;;;;1.35;71.04;100226.91;4970422;28;20123;-45
2021/11/25 05:29:47;;;;;;;6.18;1.13;;;;;;;1.33;72.50;100220.88;4969629;28;20046;-45
2021/11/25 05:32:16;;;;;;;6.32;1.55;;;;;;;1.34;71.38;100218.38;4969078;28;20047;-46
2021/11/25 05:34:45;;;;;;;2.63;0.85;;;;;;;1.32;71.83;100217.44;4970933;28;20065;-48
2021/11/25 05:37:13;;;;;;;3.58;0.80;;;;;;;1.26;72.00;100213.00;4965612;28;20107;-46
2021/11/25 05:39:40;;;;;;;5.75;1.08;;;;;;;1.23;71.35;100212.88;4965556;28;20047;-44
2021/11/25 05:42:07;;;;;;;2.30;1.13;;;;;;;1.21;71.35;100206.84;4968662;28;20054;-44
2021/11/25 05:44:35;;;;;;;2.10;1.63;;;;;;;1.19;71.13;100207.59;4969642;28;20057;-46
2021/11/25 05:47:02;;;;;;;4.18;1.10;;;;;;;1.14;72.51;100213.38;4968059;28;20062;-48
2021/11/25 05:49:29;;;;;;;8.15;1.42;;;;;;;1.10;71.65;100216.63;4969073;28;20097;-44
2021/11/25 05:51:55;;;;;;;3.78;0.95;;;;;;;1.08;71.37;100227.59;4969059;28;20109;-44
2021/11/25 05:54:22;;;;;;;3.40;0.82;;;;;;;1.02;71.54;100234.19;4969144;28;20055;-43
2021/11/25 05:56:49;;;;;;;2.63;0.70;;;;;;;1.01;72.41;100219.69;4968635;28;20051;-47
2021/11/25 05:59:16;;;;;;;3.75;0.77;;;;;;;1.00;71.58;100230.72;4948674;28;20669;-43
2021/11/25 06:01:45;;;;;;;2.90;0.52;;;;;;;1.00;72.82;100234.94;4958070;28;20106;-45
2021/11/25 06:04:13;;;;;;;2.47;0.60;;;;;;;0.99;72.24;100236.63;4968677;28;20372;-45
2021/11/25 06:06:39;;;;;;;2.70;0.70;;;;;;;0.97;72.46;100243.34;4967110;28;20054;-44
2021/11/25 06:09:06;;;;;;;3.22;0.57;;;;;;;0.99;71.92;100249.38;4969907;28;20074;-42
2021/11/25 06:11:33;;;;;;;3.30;1.02;;;;;;;0.97;72.03;100250.13;4968189;28;20103;-45
2021/11/25 06:13:59;;;;;;;3.70;1.30;;;;;;;0.97;73.08;100251.00;4969088;28;20051;-44
2021/11/25 06:16:26;;;;;;;3.70;0.75;;;;;;;0.94;72.93;100261.06;4966894;28;20050;-44
2021/11/25 06:18:53;;;;;;;6.97;1.20;;;;;;;0.96;72.82;100263.69;4967809;28;20376;-46
2021/11/25 06:21:19;;;;;;;3.13;1.00;;;;;;;0.96;72.78;100272.22;4967267;28;20124;-44
2021/11/25 06:23:46;;;;;;;10.88;1.45;;;;;;;0.96;72.39;100274.78;4966274;28;20050;-44
2021/11/25 06:26:13;;;;;;;2.05;0.52;;;;;;;0.92;72.33;100278.00;4965265;28;20066;-43
2021/11/25 06:28:39;;;;;;;1.20;0.65;;;;;;;0.86;73.91;100270.09;4964304;28;20051;-43
2021/11/25 06:31:06;;;;;;;5.25;1.77;;;;;;;0.88;73.47;100276.16;4966578;28;20054;-46
2021/11/25 06:33:32;;;;;;;1.63;0.70;;;;;;;0.85;74.02;100281.13;4967582;28;20753;-44
2021/11/25 06:35:59;;;;;;;2.10;0.63;;;;;;;0.84;72.90;100274.28;4966235;28;20183;-45
2021/11/25 06:38:27;;;;;;;2.05;0.88;;;;;;;0.85;72.89;100276.00;4965477;28;20430;-44
2021/11/25 06:40:53;;;;;;;3.85;1.30;;;;;;;0.80;73.14;100278.38;4961506;28;20050;-43
2021/11/25 06:43:20;;;;;;;2.08;0.77;;;;;;;0.81;74.06;100279.25;4967469;28;20054;-44
2021/11/25 06:45:48;;;;;;;3.63;0.80;;;;;;;0.79;73.54;100281.72;4967276;28;20097;-45
2021/11/25 06:48:14;;;;;;;3.35;1.10;;;;;;;0.81;73.51;100285.19;4965650;28;20077;-48
2021/11/25 06:50:43;;;;;;;2.42;0.73;;;;;;;0.81;72.79;100285.19;4967658;28;20046;-47
2021/11/25 06:53:11;;;;;;;6.70;1.67;;;;;;;0.80;73.48;100282.59;4966896;28;20051;-47
2021/11/25 06:55:38;;;;;;;2.75;1.00;;;;;;;0.80;72.85;100282.59;4967716;28;20206;-43
2021/11/25 06:58:04;;;;;;;5.50;1.25;;;;;;;0.77;73.47;100279.13;4967501;28;20521;-45
2021/11/25 07:00:31;;;;;;;2.80;0.88;;;;;;;0.73;73.69;100282.34;4967334;28;20093;-43
2021/11/25 07:02:58;;;;;;;3.80;1.05;;;;;;;0.67;73.73;100284.63;4963890;28;20220;-46
2021/11/25 07:05:25;;;;;;;2.90;0.90;;;;;;;0.69;72.45;100280.50;4970800;28;20475;-47
2021/11/25 07:07:53;;;;;;;3.65;0.75;;;;;;;0.66;73.70;100287.13;4979590;28;20757;-45
2021/11/25 07:10:20;;;;;;;2.38;0.57;;;;;;;0.65;73.70;100296.47;4968634;28;20047;-49
2021/11/25 07:12:47;;;;;;;6.53;1.23;;;;;;;0.64;72.57;100302.34;4967145;28;20101;-45
2021/11/25 07:15:16;;;;;;;3.53;0.70;;;;;;;0.60;73.34;100306.47;4966952;28;20051;-44
2021/11/25 07:17:45;;;;;;;2.40;0.82;;;;;;;0.59;73.70;100311.50;4966799;28;20101;-43
2021/11/25 07:20:13;;;;;;;3.63;1.08;;;;;;;0.58;72.88;100320.81;4963496;28;20054;-43
2021/11/25 07:22:40;;;;;;;2.28;0.82;;;;;;;0.58;72.91;100327.59;4966999;28;20050;-43
2021/11/25 07:25:10;;;;;;;2.63;0.82;;;;;;;0.55;73.02;100322.38;4976416;28;20058;-45
2021/11/25 07:27:37;;;;;;;6.35;1.10;;;;;;;0.51;72.71;100319.69;4977633;28;20050;-47
2021/11/25 07:30:06;;;;;;;4.00;0.88;;;;;;;0.50;73.72;100314.53;4967312;28;20109;-47
2021/11/25 07:32:33;;;;;;;10.00;1.33;;;;;;;0.48;73.12;100319.53;4958593;28;20454;-42
2021/11/25 07:34:59;;;;;;;3.58;1.02;;;;;;;0.47;73.80;100327.16;4966943;28;20077;-43
2021/11/25 07:37:26;;;;;;;6.88;1.13;;;;;;;0.44;72.98;100322.78;4964509;28;20089;-44
2021/11/25 07:39:52;;;;;;;5.53;1.35;;;;;;;0.44;72.80;100325.31;4965323;28;20097;-47
2021/11/25 07:42:19;;;;;;;4.82;0.70;;;;;;;0.42;73.46;100319.31;4963795;28;20109;-48
2021/11/25 07:44:46;;;;;;;5.03;1.30;;;;;;;0.39;73.53;100321.72;4964397;28;20046;-47
2021/11/25 07:47:12;;;;;;;4.43;1.00;;;;;;;0.38;73.88;100327.63;4961053;28;20059;-47
2021/11/25 07:49:39;;;;;;;3.70;0.60;;;;;;;0.40;73.23;100335.34;4969169;28;20054;-45
2021/11/25 07:52:09;;;;;;;2.72;0.70;;;;;;;0.37;73.71;100339.47;4967419;28;20078;-49
2021/11/25 07:54:37;;;;;;;2.95;1.00;;;;;;;0.41;73.79;100340.50;4970841;28;20162;-50
2021/11/25 07:57:03;;;;;;;3.72;0.60;;;;;;;0.48;73.66;100347.59;4964766;28;20450;-44
2021/11/25 07:59:30;;;;;;;1.27;0.43;;;;;;;0.57;73.49;100347.13;4964083;28;20046;-47
2021/11/25 08:01:57;;;;;;;9.52;1.13;;;;;;;0.70;73.27;100351.06;4965442;28;20059;-47
2021/11/25 08:04:24;;;;;;;4.03;1.02;;;;;;;0.85;73.71;100352.53;4968815;28;20492;-45
2021/11/25 08:06:51;;;;;;;7.45;1.00;;;;;;;1.07;71.88;100353.41;4967316;28;20106;-44
2021/11/25 08:09:19;;;;;;;6.03;1.23;;;;;;;1.24;71.56;100367.72;4963126;28;20047;-43
2021/11/25 08:11:46;;;;;;;6.97;0.82;;;;;;;1.33;72.68;100371.44;4966978;28;20062;-50
2021/11/25 08:14:12;;;;;;;2.67;0.85;;;;;;;1.45;71.20;100361.72;4962109;28;20121;-48
2021/11/25 08:16:39;;;;;;;6.18;1.40;;;;;;;1.65;72.14;100359.06;4967573;28;20081;-47
2021/11/25 08:19:06;;;;;;;6.13;1.10;;;;;;;1.99;71.43;100365.47;4966896;28;20079;-43
2021/11/25 08:21:34;;;;;;;4.45;1.00;;;;;;;2.31;70.88;100373.47;4981664;28;20050;-46
2021/11/25 08:24:01;;;;;;;2.88;1.15;;;;;;;2.62;70.08;100372.81;4962923;28;20051;-49
2021/11/25 08:26:28;;;;;;;5.93;1.30;;;;;;;2.99;69.57;100379.19;4960055;28;20055;-48
2021/11/25 08:28:55;;;;;;;4.43;0.82;;;;;;;3.50;69.08;100379.97;4978478;28;20058;-46
2021/11/25 08:31:21;;;;;;;5.38;0.93;;;;;;;4.01;67.96;100370.38;4965118;28;20483;-43
2021/11/25 08:33:48;;;;;;;3.72;1.33;;;;;;;4.49;66.93;100369.16;4966211;28;20475;-47
2021/11/25 08:36:15;;;;;;;2.33;0.90;;;;;;;4.88;66.00;100377.91;4968557;28;20549;-46
2021/11/25 08:38:42;;;;;;;4.80;1.70;;;;;;;5.10;63.92;100370.72;4967102;28;20062;-48
2021/11/25 08:41:09;;;;;;;7.93;1.17;;;;;;;5.47;63.83;100378.44;4968051;28;20062;-48
2021/11/25 08:43:36;;;;;;;5.25;1.60;;;;;;;5.82;63.04;100384.38;4966573;28;20047;-46
2021/11/25 08:46:04;;;;;;;5.10;1.20;;;;;;;6.00;62.74;100386.47;4961463;28;20054;-47
2021/11/25 08:48:31;;;;;;;6.13;1.20;;;;;;;6.31;63.16;100389.72;4963394;28;20918;-46
2021/11/25 08:50:59;;;;;;;3.65;1.23;;;;;;;6.77;63.26;100394.03;4962751;28;20491;-48
2021/11/25 08:53:26;;;;;;;3.40;1.10;;;;;;;7.22;59.66;100386.22;4966279;28;20043;-46
2021/11/25 08:55:52;;;;;;;4.25;1.23;;;;;;;7.71;61.07;100396.41;4963498;28;20059;-46
2021/11/25 08:58:19;;;;;;;2.85;1.05;;;;;;;8.20;59.29;100398.78;4958834;28;20059;-46
2021/11/25 09:00:50;;;;;;;6.47;1.17;;;;;;;8.71;57.81;100393.38;4961077;28;21455;-46
2021/11/25 09:03:17;;;;;;;5.32;1.10;;;;;;;8.89;56.30;100397.03;4971701;28;20150;-45
2021/11/25 09:05:45;;;;;;;2.13;1.23;;;;;;;8.87;57.10;100396.13;4967154;28;20055;-48
2021/11/25 09:08:11;;;;;;;5.15;0.88;;;;;;;9.09;57.50;100398.91;4965157;28;20050;-47
2021/11/25 09:10:38;;;;;;;9.63;1.40;;;;;;;9.41;56.92;100389.69;4967395;28;20050;-47
2021/11/25 09:13:06;;;;;;;4.03;1.10;;;;;;;9.96;56.62;100384.00;4966630;28;20498;-50
2021/11/25 09:15:34;;;;;;;5.97;1.33;;;;;;;10.51;55.73;100386.84;4966469;28;20057;-50
2021/11/25 09:18:02;;;;;;;5.88;1.42;;;;;;;11.05;53.56;100383.50;4966844;28;20047;-47
2021/11/25 09:20:33;;;;;;;4.68;0.95;;;;;;;11.45;52.59;100382.59;4968339;28;20078;-51
2021/11/25 09:23:05;;;;;;;3.78;1.25;;;;;;;11.93;51.41;100379.06;4967648;28;20058;-51
2021/11/25 09:25:32;;;;;;;4.68;1.08;;;;;;;12.33;51.05;100365.94;4977023;28;20047;-50
2021/11/25 09:28:01;;;;;;;3.70;0.90;;;;;;;12.62;49.65;100369.25;4961212;28;20055;-50
2021/11/25 09:30:28;;;;;;;5.95;1.02;;;;;;;12.65;47.83;100373.56;4965346;28;20063;-46
2021/11/25 09:32:55;;;;;;;4.72;0.95;;;;;;;12.82;47.70;100379.53;4965366;28;20057;-44
2021/11/25 09:35:22;;;;;;;5.03;1.42;;;;;;;13.09;47.48;100380.22;4968267;28;20699;-46
2021/11/25 09:37:49;;;;;;;1.83;0.95;;;;;;;13.01;45.22;100391.53;4965040;28;20125;-50
2021/11/25 09:40:26;;;;;;;3.28;1.38;;;;;;;12.87;44.51;100389.03;4966046;28;20055;-50
2021/11/25 09:43:00;;;;;;;5.45;1.33;;;;;;;12.88;42.98;100390.75;4966599;28;20058;-50
2021/11/25 09:45:28;;;;;;;1.65;0.60;;;;;;;12.83;44.06;100389.06;4967491;28;20058;-50
2021/11/25 09:47:58;;;;;;;2.10;0.90;;;;;;;12.70;44.03;100387.44;4965993;28;20059;-49
2021/11/25 09:50:27;;;;;;;4.43;1.35;;;;;;;12.97;44.40;100390.72;4969400;28;20118;-46
2021/11/25 09:52:55;;;;;;;2.33;0.90;;;;;;;12.85;42.96;100389.94;4966751;28;20086;-45
2021/11/25 09:55:22;;;;;;;4.20;1.73;;;;;;;13.04;43.50;100392.38;4965721;28;20148;-48
2021/11/25 09:57:51;;;;;;;4.65;0.95;;;;;;;13.25;44.25;100380.09;4967597;28;20076;-47
2021/11/25 10:00:21;;;;;;;5.35;1.67;;;;;;;13.41;43.49;100386.00;4966746;28;20050;-46
2021/11/25 10:02:47;;;;;;;;;;;;;;;13.54;41.17;100375.53;4965369;28;20141;-47
2021/11/25 10:05:14;;;;;;;2.33;0.85;;;;;;;13.58;41.87;100380.66;4967163;28;19926;-50
2021/11/25 10:07:42;;;;;;;3.17;1.10;;;;;;;13.40;42.35;100389.50;4965512;28;20106;-46
2021/11/25 10:10:30;;;;;;;2.60;1.00;;;;;;;13.39;41.04;100386.91;4963168;28;20047;-50
2021/11/25 10:13:10;;;;;;;4.85;1.63;;;;;;;13.27;41.53;100403.50;4973542;28;20395;-51
2021/11/25 10:15:39;;;;;;;4.28;1.50;;;;;;;13.31;41.93;100395.63;4969461;28;20043;-48
2021/11/25 10:18:11;;;;;;;5.18;1.33;;;;;;;13.31;41.55;100406.03;4967001;28;20445;-49
2021/11/25 10:20:41;;;;;;;6.15;1.30;;;;;;;13.28;41.99;100411.28;4966591;28;20050;-47
2021/11/25 10:23:14;;;;;;;4.70;1.13;;;;;;;12.91;39.75;100416.75;4967676;28;20050;-49
2021/11/25 10:25:49;;;;;;;4.07;1.13;;;;;;;12.57;41.08;100420.41;4965526;28;20557;-50
2021/11/25 10:28:19;;;;;;;6.43;1.00;;;;;;;12.17;42.59;100426.63;4965679;28;20058;-50
2021/11/25 10:30:50;;;;;;;4.10;1.55;;;;;;;11.61;42.49;100430.16;4964887;28;20474;-49
2021/11/25 10:33:30;;;;;;;3.92;0.93;;;;;;;11.14;43.71;100418.91;4963276;28;20138;-46
2021/11/25 10:36:15;;;;;;;4.00;1.38;;;;;;;10.57;45.01;100432.63;4980173;28;20090;-50
2021/11/25 10:38:59;;;;;;;2.75;0.90;;;;;;;9.98;45.73;100434.06;4972956;28;20053;-48
2021/11/25 10:41:28;;;;;;;2.80;0.80;;;;;;;9.70;46.95;100426.13;4966739;28;20050;-51
2021/11/25 10:44:06;;;;;;;3.20;0.63;;;;;;;9.62;46.63;100425.19;4967590;28;20082;-51
2021/11/25 10:46:55;;;;;;;2.25;0.93;;;;;;;9.71;47.08;100424.38;4963893;28;20066;-50
2021/11/25 10:49:46;;;;;;;2.17;0.60;;;;;;;9.20;46.58;100428.31;4966048;28;20587;-46
2021/11/25 10:52:38;;;;;;;3.30;1.08;;;;;;;8.84;47.58;100429.66;4964014;28;20058;-51
2021/11/25 10:55:08;;;;;;;2.53;0.70;;;;;;;8.46;48.62;100426.66;4964650;28;20090;-47
2021/11/25 10:57:40;;;;;;;3.30;0.70;;;;;;;8.09;49.43;100428.75;4963866;28;20105;-49
2021/11/25 11:00:13;;;;;;;0.50;0.40;;;;;;;7.82;49.82;100419.78;4960852;28;20082;-51
2021/11/25 11:02:41;;;;;;;4.07;0.77;;;;;;;7.59;51.31;100415.13;4964320;28;20106;-49
2021/11/25 11:05:13;;;;;;;3.10;0.70;;;;;;;7.49;51.21;100413.28;4963385;28;20791;-48
2021/11/25 11:07:46;;;;;;;2.03;0.50;;;;;;;7.38;51.36;100410.50;4960518;28;20050;-50
2021/11/25 11:10:20;;;;;;;1.20;0.63;;;;;;;7.43;52.31;100417.47;4962322;28;20051;-47
2021/11/25 11:19:04;;;;;;;1.85;0.93;;;;;;;6.97;53.35;100407.25;4965610;28;20058;-49
2021/11/25 11:21:39;;;;;;;3.17;0.68;;;;;;;6.92;52.98;100406.28;4961198;28;20490;-49
2021/11/25 11:24:18;;;;;;;3.53;0.85;;;;;;;6.92;53.05;100396.00;4965563;28;20074;-45
2021/11/25 11:26:49;;;;;;;5.40;0.90;;;;;;;6.90;54.93;100396.00;4965248;28;20054;-48
2021/11/25 11:29:19;;;;;;;2.88;0.63;;;;;;;7.06;54.35;100398.84;4966756;28;20058;-45
2021/11/25 11:31:48;;;;;;;2.83;0.70;;;;;;;7.19;54.03;100403.34;4967462;28;20054;-46
2021/11/25 11:34:17;;;;;;;3.80;0.80;;;;;;;7.32;53.33;100395.81;4963397;28;20058;-46
2021/11/25 11:36:46;;;;;;;4.10;0.40;;;;;;;7.41;52.18;100408.88;4966495;28;20118;-48
2021/11/25 11:39:17;;;;;;;6.00;0.80;;;;;;;7.43;52.30;100411.47;4964721;28;20047;-45
2021/11/25 11:41:47;;;;;;;;;;;;;;;7.14;54.17;100401.53;4965864;28;20117;-46
2021/11/25 11:44:20;;;;;;;2.47;0.50;;;;;;;6.94;54.69;100399.47;4964087;28;19960;-46
2021/11/25 11:46:48;;;;;;;2.50;0.73;;;;;;;6.80;53.75;100386.34;4965839;28;20454;-46